sensor_id;sensor_type;location;lat;lon;timestamp;temperature;humidity
11426;DHT22;5769;47.998;7.788;2023-10-09T00:01:03;21.40;67.50
11426;DHT22;5769;47.998;7.788;2023-10-09T00:03:39;21.40;67.40
11426;DHT22;5769;47.998;7.788;2023-10-09T00:06:06;21.40;67.30
11426;DHT22;5769;47.998;7.788;2023-10-09T00:08:35;21.40;67.30
11426;DHT22;5769;47.998;7.788;2023-10-09T00:11:04;21.40;67.30
11426;DHT22;5769;47.998;7.788;2023-10-09T00:13:42;21.40;67.20
11426;DHT22;5769;47.998;7.788;2023-10-09T00:16:17;21.40;67.20
11426;DHT22;5769;47.998;7.788;2023-10-09T00:18:50;21.40;67.20
11426;DHT22;5769;47.998;7.788;2023-10-09T00:21:19;21.40;67.20
11426;DHT22;5769;47.998;7.788;2023-10-09T00:23:48;21.40;67.10
11426;DHT22;5769;47.998;7.788;2023-10-09T00:26:19;21.40;67.10
11426;DHT22;5769;47.998;7.788;2023-10-09T00:28:46;21.40;67.00
11426;DHT22;5769;47.998;7.788;2023-10-09T00:31:18;21.40;67.00
11426;DHT22;5769;47.998;7.788;2023-10-09T00:33:55;21.40;67.00
11426;DHT22;5769;47.998;7.788;2023-10-09T00:36:26;21.40;67.00
11426;DHT22;5769;47.998;7.788;2023-10-09T00:38:54;21.40;67.00
11426;DHT22;5769;47.998;7.788;2023-10-09T00:41:22;21.40;67.00
11426;DHT22;5769;47.998;7.788;2023-10-09T00:43:54;21.40;66.90
11426;DHT22;5769;47.998;7.788;2023-10-09T00:46:26;21.40;66.90
11426;DHT22;5769;47.998;7.788;2023-10-09T00:48:55;21.40;66.90
11426;DHT22;5769;47.998;7.788;2023-10-09T00:51:23;21.40;66.90
11426;DHT22;5769;47.998;7.788;2023-10-09T00:53:53;21.40;66.90
11426;DHT22;5769;47.998;7.788;2023-10-09T00:56:22;21.40;66.90
11426;DHT22;5769;47.998;7.788;2023-10-09T00:59:03;21.40;66.90
11426;DHT22;5769;47.998;7.788;2023-10-09T01:01:41;21.40;66.80
11426;DHT22;5769;47.998;7.788;2023-10-09T01:04:15;21.40;66.80
11426;DHT22;5769;47.998;7.788;2023-10-09T01:06:45;21.40;66.70
11426;DHT22;5769;47.998;7.788;2023-10-09T01:09:18;21.40;66.70
11426;DHT22;5769;47.998;7.788;2023-10-09T01:11:48;21.40;66.70
11426;DHT22;5769;47.998;7.788;2023-10-09T01:14:29;21.40;66.70
11426;DHT22;5769;47.998;7.788;2023-10-09T01:16:57;21.40;66.70
11426;DHT22;5769;47.998;7.788;2023-10-09T01:19:26;21.40;66.70
11426;DHT22;5769;47.998;7.788;2023-10-09T01:21:53;21.40;66.70
11426;DHT22;5769;47.998;7.788;2023-10-09T01:24:21;21.40;66.70
11426;DHT22;5769;47.998;7.788;2023-10-09T01:26:52;21.40;66.80
11426;DHT22;5769;47.998;7.788;2023-10-09T01:29:20;21.40;66.70
11426;DHT22;5769;47.998;7.788;2023-10-09T01:31:49;21.40;66.80
11426;DHT22;5769;47.998;7.788;2023-10-09T01:34:20;21.40;67.40
11426;DHT22;5769;47.998;7.788;2023-10-09T01:36:50;21.40;66.70
11426;DHT22;5769;47.998;7.788;2023-10-09T01:39:21;21.40;66.60
11426;DHT22;5769;47.998;7.788;2023-10-09T01:41:52;21.40;66.60
11426;DHT22;5769;47.998;7.788;2023-10-09T01:44:24;21.40;66.50
11426;DHT22;5769;47.998;7.788;2023-10-09T01:46:52;21.40;66.50
11426;DHT22;5769;47.998;7.788;2023-10-09T01:49:20;21.40;66.40
11426;DHT22;5769;47.998;7.788;2023-10-09T01:51:55;21.40;66.40
11426;DHT22;5769;47.998;7.788;2023-10-09T01:54:26;21.40;66.30
11426;DHT22;5769;47.998;7.788;2023-10-09T01:57:02;21.40;66.30
11426;DHT22;5769;47.998;7.788;2023-10-09T01:59:38;21.40;66.30
11426;DHT22;5769;47.998;7.788;2023-10-09T02:02:10;21.40;66.20
11426;DHT22;5769;47.998;7.788;2023-10-09T02:04:50;21.40;66.10
11426;DHT22;5769;47.998;7.788;2023-10-09T02:07:17;21.40;66.20
11426;DHT22;5769;47.998;7.788;2023-10-09T02:09:50;21.40;66.10
11426;DHT22;5769;47.998;7.788;2023-10-09T02:12:16;21.40;66.10
11426;DHT22;5769;47.998;7.788;2023-10-09T02:14:43;21.40;66.10
11426;DHT22;5769;47.998;7.788;2023-10-09T02:17:10;21.40;66.10
11426;DHT22;5769;47.998;7.788;2023-10-09T02:19:44;21.40;66.10
11426;DHT22;5769;47.998;7.788;2023-10-09T02:22:13;21.40;66.20
11426;DHT22;5769;47.998;7.788;2023-10-09T02:24:42;21.40;66.20
11426;DHT22;5769;47.998;7.788;2023-10-09T02:27:17;21.40;66.10
11426;DHT22;5769;47.998;7.788;2023-10-09T02:30:07;21.40;66.00
11426;DHT22;5769;47.998;7.788;2023-10-09T02:32:43;21.40;66.20
11426;DHT22;5769;47.998;7.788;2023-10-09T02:35:14;21.30;65.90
11426;DHT22;5769;47.998;7.788;2023-10-09T02:38:02;21.40;66.20
11426;DHT22;5769;47.998;7.788;2023-10-09T02:40:31;21.40;66.10
11426;DHT22;5769;47.998;7.788;2023-10-09T02:43:08;21.40;66.00
11426;DHT22;5769;47.998;7.788;2023-10-09T02:45:38;21.40;66.00
11426;DHT22;5769;47.998;7.788;2023-10-09T02:48:16;21.40;66.10
11426;DHT22;5769;47.998;7.788;2023-10-09T02:50:45;21.40;66.00
11426;DHT22;5769;47.998;7.788;2023-10-09T02:53:12;21.40;66.30
11426;DHT22;5769;47.998;7.788;2023-10-09T02:55:44;21.40;66.20
11426;DHT22;5769;47.998;7.788;2023-10-09T02:58:31;21.40;66.20
11426;DHT22;5769;47.998;7.788;2023-10-09T03:01:02;21.40;66.30
11426;DHT22;5769;47.998;7.788;2023-10-09T03:03:28;21.40;66.30
11426;DHT22;5769;47.998;7.788;2023-10-09T03:05:55;21.40;66.70
11426;DHT22;5769;47.998;7.788;2023-10-09T03:08:21;21.40;66.30
11426;DHT22;5769;47.998;7.788;2023-10-09T03:10:48;21.40;66.20
11426;DHT22;5769;47.998;7.788;2023-10-09T03:13:14;21.40;66.30
11426;DHT22;5769;47.998;7.788;2023-10-09T03:15:46;21.40;66.10
11426;DHT22;5769;47.998;7.788;2023-10-09T03:18:14;21.40;66.10
11426;DHT22;5769;47.998;7.788;2023-10-09T03:20:40;21.40;66.20
11426;DHT22;5769;47.998;7.788;2023-10-09T03:23:09;21.40;66.20
11426;DHT22;5769;47.998;7.788;2023-10-09T03:25:39;21.40;66.00
11426;DHT22;5769;47.998;7.788;2023-10-09T03:28:08;21.40;66.80
11426;DHT22;5769;47.998;7.788;2023-10-09T03:30:34;21.40;66.10
11426;DHT22;5769;47.998;7.788;2023-10-09T03:33:04;21.40;65.90
11426;DHT22;5769;47.998;7.788;2023-10-09T03:35:32;21.40;65.80
11426;DHT22;5769;47.998;7.788;2023-10-09T03:38:00;21.40;65.80
11426;DHT22;5769;47.998;7.788;2023-10-09T03:40:35;21.40;65.70
11426;DHT22;5769;47.998;7.788;2023-10-09T03:43:04;21.40;65.70
11426;DHT22;5769;47.998;7.788;2023-10-09T03:45:31;21.40;65.70
11426;DHT22;5769;47.998;7.788;2023-10-09T03:48:00;21.40;65.60
11426;DHT22;5769;47.998;7.788;2023-10-09T03:50:35;21.40;65.60
11426;DHT22;5769;47.998;7.788;2023-10-09T03:53:03;21.40;65.60
11426;DHT22;5769;47.998;7.788;2023-10-09T03:55:34;21.40;65.50
11426;DHT22;5769;47.998;7.788;2023-10-09T03:58:00;21.40;65.50
11426;DHT22;5769;47.998;7.788;2023-10-09T04:00:28;21.40;65.50
11426;DHT22;5769;47.998;7.788;2023-10-09T04:02:57;21.40;65.40
11426;DHT22;5769;47.998;7.788;2023-10-09T04:05:24;21.40;65.30
11426;DHT22;5769;47.998;7.788;2023-10-09T04:07:54;21.40;65.30
11426;DHT22;5769;47.998;7.788;2023-10-09T04:10:24;21.40;65.20
11426;DHT22;5769;47.998;7.788;2023-10-09T04:13:09;21.40;65.20
11426;DHT22;5769;47.998;7.788;2023-10-09T04:15:38;21.40;65.20
11426;DHT22;5769;47.998;7.788;2023-10-09T04:18:08;21.40;65.20
11426;DHT22;5769;47.998;7.788;2023-10-09T04:20:40;21.40;65.20
11426;DHT22;5769;47.998;7.788;2023-10-09T04:23:45;21.40;65.10
11426;DHT22;5769;47.998;7.788;2023-10-09T04:26:35;21.40;65.10
11426;DHT22;5769;47.998;7.788;2023-10-09T04:29:03;21.40;65.10
11426;DHT22;5769;47.998;7.788;2023-10-09T04:31:30;21.40;65.10
11426;DHT22;5769;47.998;7.788;2023-10-09T04:34:00;21.40;65.20
11426;DHT22;5769;47.998;7.788;2023-10-09T04:36:44;21.40;65.00
11426;DHT22;5769;47.998;7.788;2023-10-09T04:39:16;21.40;65.00
11426;DHT22;5769;47.998;7.788;2023-10-09T04:42:01;21.40;65.10
11426;DHT22;5769;47.998;7.788;2023-10-09T04:44:52;21.40;64.90
11426;DHT22;5769;47.998;7.788;2023-10-09T04:47:38;21.40;65.00
11426;DHT22;5769;47.998;7.788;2023-10-09T04:50:15;21.40;65.00
11426;DHT22;5769;47.998;7.788;2023-10-09T04:52:56;21.40;65.00
11426;DHT22;5769;47.998;7.788;2023-10-09T04:55:40;21.40;65.00
11426;DHT22;5769;47.998;7.788;2023-10-09T04:58:10;21.40;64.90
11426;DHT22;5769;47.998;7.788;2023-10-09T05:00:39;21.40;65.10
11426;DHT22;5769;47.998;7.788;2023-10-09T05:03:35;21.40;65.00
11426;DHT22;5769;47.998;7.788;2023-10-09T05:06:11;21.40;65.40
11426;DHT22;5769;47.998;7.788;2023-10-09T05:08:58;21.40;65.40
11426;DHT22;5769;47.998;7.788;2023-10-09T05:11:35;21.40;65.40
11426;DHT22;5769;47.998;7.788;2023-10-09T05:14:15;21.40;65.30
11426;DHT22;5769;47.998;7.788;2023-10-09T05:16:43;21.40;65.50
11426;DHT22;5769;47.998;7.788;2023-10-09T05:19:20;21.40;65.60
11426;DHT22;5769;47.998;7.788;2023-10-09T05:21:59;21.40;65.30
11426;DHT22;5769;47.998;7.788;2023-10-09T05:24:30;21.40;65.40
11426;DHT22;5769;47.998;7.788;2023-10-09T05:27:10;21.40;65.40
11426;DHT22;5769;47.998;7.788;2023-10-09T05:30:07;21.40;66.20
11426;DHT22;5769;47.998;7.788;2023-10-09T05:32:51;21.40;65.30
11426;DHT22;5769;47.998;7.788;2023-10-09T05:35:21;21.40;65.20
11426;DHT22;5769;47.998;7.788;2023-10-09T05:37:55;21.40;65.00
11426;DHT22;5769;47.998;7.788;2023-10-09T05:40:27;21.40;64.90
11426;DHT22;5769;47.998;7.788;2023-10-09T05:42:57;21.40;64.90
11426;DHT22;5769;47.998;7.788;2023-10-09T05:45:25;21.30;64.90
11426;DHT22;5769;47.998;7.788;2023-10-09T05:48:09;21.40;64.80
11426;DHT22;5769;47.998;7.788;2023-10-09T05:50:50;21.40;64.80
11426;DHT22;5769;47.998;7.788;2023-10-09T05:53:37;21.40;64.70
11426;DHT22;5769;47.998;7.788;2023-10-09T05:56:18;21.40;65.50
11426;DHT22;5769;47.998;7.788;2023-10-09T05:59:04;21.40;65.10
11426;DHT22;5769;47.998;7.788;2023-10-09T06:01:48;21.40;65.20
11426;DHT22;5769;47.998;7.788;2023-10-09T06:04:32;21.40;65.20
11426;DHT22;5769;47.998;7.788;2023-10-09T06:07:14;21.40;65.20
11426;DHT22;5769;47.998;7.788;2023-10-09T06:09:48;21.40;65.20
11426;DHT22;5769;47.998;7.788;2023-10-09T06:12:18;21.40;65.20
11426;DHT22;5769;47.998;7.788;2023-10-09T06:15:16;21.40;65.20
11426;DHT22;5769;47.998;7.788;2023-10-09T06:17:57;21.50;65.90
11426;DHT22;5769;47.998;7.788;2023-10-09T06:20:43;21.40;65.20
11426;DHT22;5769;47.998;7.788;2023-10-09T06:23:24;21.50;65.20
11426;DHT22;5769;47.998;7.788;2023-10-09T06:26:10;21.50;65.20
11426;DHT22;5769;47.998;7.788;2023-10-09T06:28:50;21.50;65.20
11426;DHT22;5769;47.998;7.788;2023-10-09T06:31:38;21.50;65.20
11426;DHT22;5769;47.998;7.788;2023-10-09T06:34:18;21.50;65.20
11426;DHT22;5769;47.998;7.788;2023-10-09T06:36:48;21.50;65.20
11426;DHT22;5769;47.998;7.788;2023-10-09T06:39:18;21.50;65.20
11426;DHT22;5769;47.998;7.788;2023-10-09T06:42:02;21.50;65.30
11426;DHT22;5769;47.998;7.788;2023-10-09T06:44:55;21.50;65.30
11426;DHT22;5769;47.998;7.788;2023-10-09T06:47:23;21.50;65.30
11426;DHT22;5769;47.998;7.788;2023-10-09T06:49:50;21.50;65.30
11426;DHT22;5769;47.998;7.788;2023-10-09T06:52:30;21.50;65.40
11426;DHT22;5769;47.998;7.788;2023-10-09T06:55:11;21.50;65.40
11426;DHT22;5769;47.998;7.788;2023-10-09T06:57:44;21.50;65.40
11426;DHT22;5769;47.998;7.788;2023-10-09T07:00:14;21.50;65.40
11426;DHT22;5769;47.998;7.788;2023-10-09T07:03:00;21.60;65.40
11426;DHT22;5769;47.998;7.788;2023-10-09T07:05:36;21.60;65.40
11426;DHT22;5769;47.998;7.788;2023-10-09T07:08:23;21.60;65.40
11426;DHT22;5769;47.998;7.788;2023-10-09T07:11:02;21.60;65.40
11426;DHT22;5769;47.998;7.788;2023-10-09T07:13:43;21.60;65.40
11426;DHT22;5769;47.998;7.788;2023-10-09T07:16:20;21.60;65.30
11426;DHT22;5769;47.998;7.788;2023-10-09T07:19:05;21.60;65.20
11426;DHT22;5769;47.998;7.788;2023-10-09T07:21:50;21.60;65.30
11426;DHT22;5769;47.998;7.788;2023-10-09T07:24:19;21.60;65.30
11426;DHT22;5769;47.998;7.788;2023-10-09T07:27:03;21.60;65.40
11426;DHT22;5769;47.998;7.788;2023-10-09T07:29:34;21.60;65.40
11426;DHT22;5769;47.998;7.788;2023-10-09T07:32:13;21.60;65.40
11426;DHT22;5769;47.998;7.788;2023-10-09T07:37:26;21.70;65.60
11426;DHT22;5769;47.998;7.788;2023-10-09T07:39:56;21.70;65.60
11426;DHT22;5769;47.998;7.788;2023-10-09T07:42:24;21.70;65.70
11426;DHT22;5769;47.998;7.788;2023-10-09T07:45:09;21.70;65.70
11426;DHT22;5769;47.998;7.788;2023-10-09T07:47:58;21.60;65.70
11426;DHT22;5769;47.998;7.788;2023-10-09T07:50:37;21.70;65.80
11426;DHT22;5769;47.998;7.788;2023-10-09T07:53:15;21.70;65.80
11426;DHT22;5769;47.998;7.788;2023-10-09T07:55:44;21.70;65.90
11426;DHT22;5769;47.998;7.788;2023-10-09T07:58:20;21.70;65.90
11426;DHT22;5769;47.998;7.788;2023-10-09T08:00:51;21.70;65.90
11426;DHT22;5769;47.998;7.788;2023-10-09T08:03:32;21.70;65.90
11426;DHT22;5769;47.998;7.788;2023-10-09T08:06:01;21.70;65.90
11426;DHT22;5769;47.998;7.788;2023-10-09T08:08:53;21.70;65.90
11426;DHT22;5769;47.998;7.788;2023-10-09T08:11:34;21.70;65.90
11426;DHT22;5769;47.998;7.788;2023-10-09T08:14:19;21.70;65.80
11426;DHT22;5769;47.998;7.788;2023-10-09T08:17:07;21.70;65.80
11426;DHT22;5769;47.998;7.788;2023-10-09T08:19:42;21.70;65.70
11426;DHT22;5769;47.998;7.788;2023-10-09T08:22:25;21.70;65.70
11426;DHT22;5769;47.998;7.788;2023-10-09T08:25:15;21.70;65.70
11426;DHT22;5769;47.998;7.788;2023-10-09T08:27:55;21.70;65.70
11426;DHT22;5769;47.998;7.788;2023-10-09T08:30:23;21.70;65.60
11426;DHT22;5769;47.998;7.788;2023-10-09T08:33:06;21.70;65.60
11426;DHT22;5769;47.998;7.788;2023-10-09T08:35:47;21.70;65.60
11426;DHT22;5769;47.998;7.788;2023-10-09T08:38:16;21.70;65.50
11426;DHT22;5769;47.998;7.788;2023-10-09T08:40:49;21.80;65.60
11426;DHT22;5769;47.998;7.788;2023-10-09T08:43:17;21.80;65.50
11426;DHT22;5769;47.998;7.788;2023-10-09T08:45:47;21.70;65.40
11426;DHT22;5769;47.998;7.788;2023-10-09T08:48:17;21.70;65.50
11426;DHT22;5769;47.998;7.788;2023-10-09T08:50:45;21.70;65.40
11426;DHT22;5769;47.998;7.788;2023-10-09T08:53:17;21.70;65.50
11426;DHT22;5769;47.998;7.788;2023-10-09T08:55:43;21.70;65.50
11426;DHT22;5769;47.998;7.788;2023-10-09T08:58:12;21.70;66.10
11426;DHT22;5769;47.998;7.788;2023-10-09T09:00:42;21.70;65.30
11426;DHT22;5769;47.998;7.788;2023-10-09T09:03:11;21.70;64.90
11426;DHT22;5769;47.998;7.788;2023-10-09T09:05:38;21.70;65.20
11426;DHT22;5769;47.998;7.788;2023-10-09T09:08:22;21.70;65.20
11426;DHT22;5769;47.998;7.788;2023-10-09T09:10:57;21.70;65.20
11426;DHT22;5769;47.998;7.788;2023-10-09T09:13:38;21.70;65.20
11426;DHT22;5769;47.998;7.788;2023-10-09T09:16:13;21.70;65.20
11426;DHT22;5769;47.998;7.788;2023-10-09T09:18:49;21.70;65.20
11426;DHT22;5769;47.998;7.788;2023-10-09T09:21:22;21.80;65.30
11426;DHT22;5769;47.998;7.788;2023-10-09T09:23:57;21.80;65.40
11426;DHT22;5769;47.998;7.788;2023-10-09T09:26:34;21.80;65.40
11426;DHT22;5769;47.998;7.788;2023-10-09T09:29:05;21.80;65.40
11426;DHT22;5769;47.998;7.788;2023-10-09T09:31:32;21.80;65.50
11426;DHT22;5769;47.998;7.788;2023-10-09T09:34:04;21.80;65.60
11426;DHT22;5769;47.998;7.788;2023-10-09T09:36:53;21.80;65.70
11426;DHT22;5769;47.998;7.788;2023-10-09T09:39:26;21.80;66.50
11426;DHT22;5769;47.998;7.788;2023-10-09T09:41:57;21.80;65.70
11426;DHT22;5769;47.998;7.788;2023-10-09T09:44:32;21.80;65.90
11426;DHT22;5769;47.998;7.788;2023-10-09T09:47:00;21.80;65.90
11426;DHT22;5769;47.998;7.788;2023-10-09T09:49:30;21.80;65.90
11426;DHT22;5769;47.998;7.788;2023-10-09T09:52:01;21.80;66.00
11426;DHT22;5769;47.998;7.788;2023-10-09T09:54:29;21.80;66.00
11426;DHT22;5769;47.998;7.788;2023-10-09T09:57:02;21.90;66.10
11426;DHT22;5769;47.998;7.788;2023-10-09T09:59:37;21.80;66.10
11426;DHT22;5769;47.998;7.788;2023-10-09T10:02:07;21.80;66.10
11426;DHT22;5769;47.998;7.788;2023-10-09T10:04:39;21.90;66.20
11426;DHT22;5769;47.998;7.788;2023-10-09T10:07:07;21.90;66.30
11426;DHT22;5769;47.998;7.788;2023-10-09T10:09:37;21.90;66.30
11426;DHT22;5769;47.998;7.788;2023-10-09T10:12:07;21.80;66.20
11426;DHT22;5769;47.998;7.788;2023-10-09T10:14:51;21.90;66.20
11426;DHT22;5769;47.998;7.788;2023-10-09T10:17:19;21.90;66.10
11426;DHT22;5769;47.998;7.788;2023-10-09T10:20:00;21.80;66.10
11426;DHT22;5769;47.998;7.788;2023-10-09T10:22:47;21.90;66.10
11426;DHT22;5769;47.998;7.788;2023-10-09T10:25:33;21.90;66.00
11426;DHT22;5769;47.998;7.788;2023-10-09T10:28:19;21.90;66.00
11426;DHT22;5769;47.998;7.788;2023-10-09T10:30:54;21.90;65.90
11426;DHT22;5769;47.998;7.788;2023-10-09T10:33:23;21.90;65.90
11426;DHT22;5769;47.998;7.788;2023-10-09T10:35:51;21.90;65.90
11426;DHT22;5769;47.998;7.788;2023-10-09T10:38:30;21.90;65.90
11426;DHT22;5769;47.998;7.788;2023-10-09T10:41:14;21.80;65.80
11426;DHT22;5769;47.998;7.788;2023-10-09T10:43:43;21.90;65.90
11426;DHT22;5769;47.998;7.788;2023-10-09T10:46:25;21.80;65.80
11426;DHT22;5769;47.998;7.788;2023-10-09T10:49:04;21.80;65.80
11426;DHT22;5769;47.998;7.788;2023-10-09T10:51:41;21.80;65.80
11426;DHT22;5769;47.998;7.788;2023-10-09T10:54:21;21.80;65.70
11426;DHT22;5769;47.998;7.788;2023-10-09T10:57:19;21.80;65.70
11426;DHT22;5769;47.998;7.788;2023-10-09T10:59:45;21.80;65.60
11426;DHT22;5769;47.998;7.788;2023-10-09T11:02:16;21.80;65.60
11426;DHT22;5769;47.998;7.788;2023-10-09T11:04:48;21.80;65.60
11426;DHT22;5769;47.998;7.788;2023-10-09T11:07:21;21.80;65.50
11426;DHT22;5769;47.998;7.788;2023-10-09T11:09:54;21.80;65.40
11426;DHT22;5769;47.998;7.788;2023-10-09T11:12:44;21.80;65.40
11426;DHT22;5769;47.998;7.788;2023-10-09T11:15:33;21.80;65.40
11426;DHT22;5769;47.998;7.788;2023-10-09T11:18:10;21.80;65.40
11426;DHT22;5769;47.998;7.788;2023-10-09T11:20:44;21.80;65.40
11426;DHT22;5769;47.998;7.788;2023-10-09T11:23:22;21.80;65.40
11426;DHT22;5769;47.998;7.788;2023-10-09T11:26:03;21.80;65.50
11426;DHT22;5769;47.998;7.788;2023-10-09T11:29:05;21.80;65.40
11426;DHT22;5769;47.998;7.788;2023-10-09T11:31:38;21.80;65.40
11426;DHT22;5769;47.998;7.788;2023-10-09T11:34:18;21.80;65.40
11426;DHT22;5769;47.998;7.788;2023-10-09T11:36:57;21.80;65.40
11426;DHT22;5769;47.998;7.788;2023-10-09T11:39:26;21.70;65.40
11426;DHT22;5769;47.998;7.788;2023-10-09T11:42:07;21.70;65.20
11426;DHT22;5769;47.998;7.788;2023-10-09T11:44:37;21.80;65.40
11426;DHT22;5769;47.998;7.788;2023-10-09T11:47:05;21.80;65.30
11426;DHT22;5769;47.998;7.788;2023-10-09T11:49:49;21.70;65.20
11426;DHT22;5769;47.998;7.788;2023-10-09T11:52:22;21.70;65.20
11426;DHT22;5769;47.998;7.788;2023-10-09T11:55:03;21.70;65.20
11426;DHT22;5769;47.998;7.788;2023-10-09T11:57:32;21.70;65.10
11426;DHT22;5769;47.998;7.788;2023-10-09T12:00:01;21.70;65.10
11426;DHT22;5769;47.998;7.788;2023-10-09T12:02:36;21.70;65.10
11426;DHT22;5769;47.998;7.788;2023-10-09T12:05:09;21.70;65.10
11426;DHT22;5769;47.998;7.788;2023-10-09T12:07:43;21.70;65.10
11426;DHT22;5769;47.998;7.788;2023-10-09T12:10:10;21.70;65.10
11426;DHT22;5769;47.998;7.788;2023-10-09T12:12:39;21.70;65.10
11426;DHT22;5769;47.998;7.788;2023-10-09T12:15:08;21.70;65.10
11426;DHT22;5769;47.998;7.788;2023-10-09T12:17:42;21.70;65.10
11426;DHT22;5769;47.998;7.788;2023-10-09T12:20:10;21.70;65.10
11426;DHT22;5769;47.998;7.788;2023-10-09T12:22:40;21.70;65.10
11426;DHT22;5769;47.998;7.788;2023-10-09T12:25:07;21.70;65.10
11426;DHT22;5769;47.998;7.788;2023-10-09T12:27:35;21.70;65.10
11426;DHT22;5769;47.998;7.788;2023-10-09T12:30:01;21.70;65.20
11426;DHT22;5769;47.998;7.788;2023-10-09T12:32:30;21.70;65.20
11426;DHT22;5769;47.998;7.788;2023-10-09T12:35:01;21.70;65.40
11426;DHT22;5769;47.998;7.788;2023-10-09T12:37:28;21.70;65.70
11426;DHT22;5769;47.998;7.788;2023-10-09T12:39:56;21.80;65.70
11426;DHT22;5769;47.998;7.788;2023-10-09T12:42:23;21.70;65.70
11426;DHT22;5769;47.998;7.788;2023-10-09T12:44:50;21.80;65.90
11426;DHT22;5769;47.998;7.788;2023-10-09T12:47:17;21.80;66.10
11426;DHT22;5769;47.998;7.788;2023-10-09T12:49:45;21.80;66.20
11426;DHT22;5769;47.998;7.788;2023-10-09T12:52:13;21.80;66.30
11426;DHT22;5769;47.998;7.788;2023-10-09T12:54:42;21.80;66.40
11426;DHT22;5769;47.998;7.788;2023-10-09T12:57:11;21.80;66.40
11426;DHT22;5769;47.998;7.788;2023-10-09T12:59:40;21.80;66.40
11426;DHT22;5769;47.998;7.788;2023-10-09T13:02:11;21.80;66.40
11426;DHT22;5769;47.998;7.788;2023-10-09T13:04:38;21.80;66.50
11426;DHT22;5769;47.998;7.788;2023-10-09T13:07:09;21.80;66.50
11426;DHT22;5769;47.998;7.788;2023-10-09T13:09:38;21.80;66.50
11426;DHT22;5769;47.998;7.788;2023-10-09T13:12:08;21.80;67.30
11426;DHT22;5769;47.998;7.788;2023-10-09T13:14:43;21.80;66.60
11426;DHT22;5769;47.998;7.788;2023-10-09T13:17:10;21.90;66.70
11426;DHT22;5769;47.998;7.788;2023-10-09T13:19:38;21.90;66.80
11426;DHT22;5769;47.998;7.788;2023-10-09T13:22:05;21.90;66.90
11426;DHT22;5769;47.998;7.788;2023-10-09T13:24:39;21.90;67.00
11426;DHT22;5769;47.998;7.788;2023-10-09T13:27:07;21.90;67.00
11426;DHT22;5769;47.998;7.788;2023-10-09T13:29:36;21.90;67.00
11426;DHT22;5769;47.998;7.788;2023-10-09T13:32:05;21.90;67.00
11426;DHT22;5769;47.998;7.788;2023-10-09T13:34:39;21.90;67.10
11426;DHT22;5769;47.998;7.788;2023-10-09T13:37:10;21.90;67.20
11426;DHT22;5769;47.998;7.788;2023-10-09T13:39:40;21.90;67.30
11426;DHT22;5769;47.998;7.788;2023-10-09T13:42:17;21.90;67.30
11426;DHT22;5769;47.998;7.788;2023-10-09T13:44:44;22.00;67.30
11426;DHT22;5769;47.998;7.788;2023-10-09T13:47:14;21.90;67.30
11426;DHT22;5769;47.998;7.788;2023-10-09T13:49:46;22.00;67.30
11426;DHT22;5769;47.998;7.788;2023-10-09T13:52:16;22.00;67.30
11426;DHT22;5769;47.998;7.788;2023-10-09T13:54:45;21.90;67.20
11426;DHT22;5769;47.998;7.788;2023-10-09T13:57:15;22.00;67.20
11426;DHT22;5769;47.998;7.788;2023-10-09T13:59:42;22.00;67.30
11426;DHT22;5769;47.998;7.788;2023-10-09T14:02:14;22.00;67.40
11426;DHT22;5769;47.998;7.788;2023-10-09T14:04:44;21.90;67.40
11426;DHT22;5769;47.998;7.788;2023-10-09T14:07:12;22.00;67.50
11426;DHT22;5769;47.998;7.788;2023-10-09T14:09:42;22.00;67.50
11426;DHT22;5769;47.998;7.788;2023-10-09T14:12:22;22.00;67.50
11426;DHT22;5769;47.998;7.788;2023-10-09T14:14:51;22.00;67.40
11426;DHT22;5769;47.998;7.788;2023-10-09T14:17:20;22.00;67.40
11426;DHT22;5769;47.998;7.788;2023-10-09T14:19:51;22.00;67.40
11426;DHT22;5769;47.998;7.788;2023-10-09T14:22:22;22.00;67.40
11426;DHT22;5769;47.998;7.788;2023-10-09T14:24:49;22.00;67.40
11426;DHT22;5769;47.998;7.788;2023-10-09T14:27:23;22.00;67.40
11426;DHT22;5769;47.998;7.788;2023-10-09T14:29:53;22.00;67.40
11426;DHT22;5769;47.998;7.788;2023-10-09T14:32:22;22.00;67.30
11426;DHT22;5769;47.998;7.788;2023-10-09T14:34:54;22.00;67.30
11426;DHT22;5769;47.998;7.788;2023-10-09T14:37:26;22.00;67.30
11426;DHT22;5769;47.998;7.788;2023-10-09T14:39:53;22.00;67.40
11426;DHT22;5769;47.998;7.788;2023-10-09T14:42:22;22.00;67.40
11426;DHT22;5769;47.998;7.788;2023-10-09T14:44:53;22.00;67.40
11426;DHT22;5769;47.998;7.788;2023-10-09T14:47:20;22.00;67.30
11426;DHT22;5769;47.998;7.788;2023-10-09T14:49:47;22.00;67.40
11426;DHT22;5769;47.998;7.788;2023-10-09T14:52:15;22.00;67.30
11426;DHT22;5769;47.998;7.788;2023-10-09T14:54:44;22.00;67.30
11426;DHT22;5769;47.998;7.788;2023-10-09T14:57:11;22.00;67.30
11426;DHT22;5769;47.998;7.788;2023-10-09T14:59:40;22.00;67.30
11426;DHT22;5769;47.998;7.788;2023-10-09T15:02:08;22.00;67.30
11426;DHT22;5769;47.998;7.788;2023-10-09T15:04:35;22.00;67.30
11426;DHT22;5769;47.998;7.788;2023-10-09T15:07:02;22.00;67.40
11426;DHT22;5769;47.998;7.788;2023-10-09T15:09:32;22.10;67.70
11426;DHT22;5769;47.998;7.788;2023-10-09T15:12:00;22.10;67.60
11426;DHT22;5769;47.998;7.788;2023-10-09T15:14:26;22.10;67.50
11426;DHT22;5769;47.998;7.788;2023-10-09T15:16:54;22.10;67.50
11426;DHT22;5769;47.998;7.788;2023-10-09T15:19:21;22.10;67.50
11426;DHT22;5769;47.998;7.788;2023-10-09T15:21:54;22.10;67.60
11426;DHT22;5769;47.998;7.788;2023-10-09T15:24:21;22.10;67.60
11426;DHT22;5769;47.998;7.788;2023-10-09T15:26:50;22.10;67.70
11426;DHT22;5769;47.998;7.788;2023-10-09T15:29:19;22.10;67.70
11426;DHT22;5769;47.998;7.788;2023-10-09T15:31:48;22.10;67.70
11426;DHT22;5769;47.998;7.788;2023-10-09T15:34:17;22.10;67.70
11426;DHT22;5769;47.998;7.788;2023-10-09T15:36:44;22.10;67.80
11426;DHT22;5769;47.998;7.788;2023-10-09T15:39:12;22.10;67.80
11426;DHT22;5769;47.998;7.788;2023-10-09T15:41:39;22.10;67.80
11426;DHT22;5769;47.998;7.788;2023-10-09T15:44:06;22.10;67.80
11426;DHT22;5769;47.998;7.788;2023-10-09T15:46:32;22.10;67.90
11426;DHT22;5769;47.998;7.788;2023-10-09T15:49:00;22.10;67.90
11426;DHT22;5769;47.998;7.788;2023-10-09T15:51:28;22.10;67.90
11426;DHT22;5769;47.998;7.788;2023-10-09T15:53:56;22.10;68.00
11426;DHT22;5769;47.998;7.788;2023-10-09T15:56:23;22.10;67.90
11426;DHT22;5769;47.998;7.788;2023-10-09T15:58:52;22.10;67.90
11426;DHT22;5769;47.998;7.788;2023-10-09T16:01:19;22.20;68.00
11426;DHT22;5769;47.998;7.788;2023-10-09T16:03:48;22.20;68.00
11426;DHT22;5769;47.998;7.788;2023-10-09T16:06:16;22.10;67.90
11426;DHT22;5769;47.998;7.788;2023-10-09T16:08:45;22.20;68.00
11426;DHT22;5769;47.998;7.788;2023-10-09T16:11:16;22.20;68.00
11426;DHT22;5769;47.998;7.788;2023-10-09T16:13:43;22.20;68.00
11426;DHT22;5769;47.998;7.788;2023-10-09T16:16:10;22.20;68.00
11426;DHT22;5769;47.998;7.788;2023-10-09T16:18:39;22.10;67.90
11426;DHT22;5769;47.998;7.788;2023-10-09T16:21:06;22.20;68.00
11426;DHT22;5769;47.998;7.788;2023-10-09T16:23:37;22.10;67.90
11426;DHT22;5769;47.998;7.788;2023-10-09T16:26:05;22.20;68.00